x

South Kodiak - 310nm Ssw Of Kodiak, Ak (46066) Wave Buoy

1:50pm - Sun 1st Feb 2015 All times are UTC.

  • Sig Wave height 18.7ft
  • Swell Direction
  • Peak Period 14s
  • Average Period 9s
  • Wind
    27mph, 34mph gusts
  • Sea Temp 41°f
  • Air Temp 41°f
  • Sea Pressure 1001.1mb

More Historic Weather Station data

Upgrade to MSW Pro to gain access to the past 30 days of data for over 8000 Wavebouys and Weather Stations around the globe.

Join Pro

Comparision Forecast

View Surf forecast
   
Sun 02/01 1:50pm 18.5ft 14s 9s 27 34 mph 1001.1mb 41f 41f
12:50pm 23.5ft 14s 10s 31 38 mph 1001.2mb 41f 42f
11:50am 20.5ft 15s 9s 29 36 mph 1001mb 41f 43f
10:50am 21.5ft 15s 10s 27 34 mph 1000.6mb 41f 43f
9:50am 23.5ft 15s 10s 29 38 mph 1000.1mb 41f 43f
8:50am 23.5ft 15s 10s 29 36 mph 999.8mb 41f 43f
7:50am 23.5ft 14s 10s 27 34 mph 999.6mb 41f 43f
6:50am 25.5ft 14s 11s 27 34 mph 999.3mb 41f 43f
5:50am 22ft 13s 10s 25 29 mph 999mb 41f 43f
4:50am 20.5ft 13s 9s 25 31 mph 998.7mb 41f 43f
3:50am 17.5ft 11s 9s 25 31 mph 998.1mb 41f 43f
2:50am 20.5ft 12s 10s 25 29 mph 997.4mb 41f 43f
1:50am 18.5ft 12s 9s 22 29 mph 996.6mb 41f 43f
12:50am 20.5ft 13s 9s 22 27 mph 996.2mb 41f 43f
Sat 01/31 11:50pm 19.5ft 13s 9s 22 29 mph 995.7mb 41f 43f
10:50pm 23.5ft 12s 10s 25 31 mph 995.4mb 41f 43f
9:50pm 24.5ft 13s 10s 27 34 mph 995.3mb 41f 43f
8:50pm 23.5ft 12s 10s 27 34 mph 995.1mb 41f 42f
7:50pm 22.5ft 12s 9s 29 36 mph 995mb 41f 42f
6:50pm 23.5ft 11s 9s 31 40 mph 994.7mb 41f 42f
5:50pm 22.5ft 12s 9s 38 45 mph 994.1mb 41f 42f
4:50pm 26ft 11s 9s 38 47 mph 994.4mb 41f 42f
3:50pm 23.5ft 11s 9s 38 47 mph 995mb 41f 42f
2:50pm 23.5ft 12s 9s 40 49 mph 995.8mb 41f 42f
1:50pm 21.5ft 11s 8s 40 51 mph 996.7mb 41f 42f
12:50pm 21ft 11s 9s 40 54 mph 998mb 41f 42f
11:50am 23.5ft 11s 9s 43 51 mph 998.9mb 41f 42f
10:50am 20ft 11s 8s 38 51 mph 1000.5mb 41f 42f
9:50am 19ft 9s 8s 43 54 mph 1001.6mb 41f 42f
8:50am 16.5ft 8s 7s 43 51 mph 1003mb 41f 42f
7:50am 13ft 8s 7s 38 47 mph 1003.9mb 41f 42f
6:50am 11ft 7s 6s 38 49 mph 1005.2mb 41f 43f
5:50am 10.5ft 7s 6s 36 45 mph 1006.6mb 41f 43f
4:50am 9.5ft 8s 6s 36 45 mph 1007.7mb 41f 43f
3:50am 9ft 8s 6s 29 38 mph 1008.9mb 41f 42f
2:50am 8ft 7s 6s 29 36 mph 1009.8mb 41f 40f
1:50am 7ft 8s 6s 29 36 mph 1010.9mb 41f 40f
12:50am 6.5ft 8s 6s 25 31 mph 1011.6mb 41f 38f
Fri 01/30 11:50pm 6.5ft 8s 6s 22 27 mph 1012.3mb 41f 38f
10:50pm 5.5ft 7s 6s 20 25 mph 1013mb 41f 39f
9:50pm 6ft 7s 6s 20 22 mph 1013.3mb 41f 40f
8:50pm 6ft 7s 6s 13 18 mph 1013.2mb 41f 40f
7:50pm 6.5ft 7s 6s 13 16 mph 1014.1mb 41f 41f
6:50pm 6.5ft 7s 6s 16 22 mph 1014mb 41f 40f
5:50pm 7ft 6s 6s 22 27 mph 1013.8mb 41f 40f
4:50pm 7ft 7s 6s 22 29 mph 1013.8mb 41f 40f
3:50pm 7.5ft 6s 6s 20 27 mph 1014.2mb 41f 40f
2:50pm 7ft 6s 6s 22 27 mph 1014.3mb 41f 40f
1:50pm 7ft 8s 6s 20 27 mph 1014.9mb 41f 40f
12:50pm 7ft 5s 6s 22 27 mph 1015mb 41f 40f
11:50am 6ft 9s 6s 22 29 mph 1014.5mb 41f 40f
10:50am 5.5ft 10s 6s 20 25 mph 1014.6mb 41f 41f
9:50am 5.5ft 10s 6s 16 20 mph 1014.4mb 41f 41f
8:50am 5.5ft 10s 6s 18 22 mph 1014mb 41f 41f
7:50am 6ft 9s 6s 20 22 mph 1013.6mb 41f 41f
6:50am 6ft 8s 6s 16 20 mph 1013.5mb 41f 41f
5:50am 6.5ft 10s 6s 18 20 mph 1013.1mb 41f 41f
4:50am 8ft 9s 7s 16 18 mph 1012.8mb 41f 41f
3:50am 8ft 9s 7s 16 18 mph 1012.6mb 41f 41f
2:50am 8.5ft 11s 7s 16 20 mph 1012.2mb 41f 41f
1:50am 9ft 10s 7s 18 22 mph 1011.5mb 41f 41f
12:50am 7.5ft 11s 7s 16 20 mph 1011.5mb 41f 41f
Thu 01/29 11:50pm 7ft 9s 7s 13 18 mph 1011.1mb 41f 41f
10:50pm 7ft 9s 7s 13 18 mph 1011.2mb 41f 41f
9:50pm 7.5ft 9s  -  13 16 mph 1011.2mb 41f 41f
8:50pm 7.5ft 9s 8s 13 16 mph 1011.1mb 41f 41f
7:50pm 8ft 11s 8s 13 16 mph 1010.6mb 41f 41f
6:50pm 8ft 10s 8s 13 16 mph 1009.9mb 41f 41f
5:50pm 8ft 11s 8s 11 13 mph 1009.5mb 41f 41f
4:50pm 9ft 12s 8s 11 13 mph 1008.9mb 41f 41f
3:50pm 8.5ft 9s 8s 9 11 mph 1008.5mb 41f 41f
2:50pm 9.5ft 8s 8s 7 9 mph 1008mb 41f 41f
1:50pm 9.5ft 9s 8s 4 7 mph 1007.8mb 41f 40f
12:50pm 9.5ft 9s 8s 9 11 mph 1007.5mb 41f 41f
11:50am 9ft 8s 7s 9 11 mph 1007.1mb 41f 40f
10:50am 9ft 8s 7s 9 11 mph 1006.7mb 41f 40f
9:50am 8.5ft 9s 8s 11 16 mph 1006.1mb 41f 41f
8:50am 8.5ft 8s 8s 13 16 mph 1005.5mb 41f 40f
7:50am 9ft 8s 8s 9 16 mph 1004.7mb 41f 41f
6:50am 9ft 11s 8s 9 11 mph 1003.9mb 41f 41f
5:50am 9ft 9s 8s 9 11 mph 1003mb 41f 40f
4:50am 9.5ft 9s 7s 13 16 mph 1002.1mb 41f 41f
3:50am 8.5ft 8s 7s 11 13 mph 1001.5mb 41f 40f
2:50am 8.5ft 9s 7s 13 16 mph 1000.5mb 41f 40f
1:50am 9ft 13s 7s 18 20 mph 999.8mb 41f 41f
12:50am 9ft 10s 7s 18 20 mph 999mb 41f 40f
Wed 01/28 11:50pm 8.5ft 10s 7s 18 22 mph 998.2mb 41f 40f
10:50pm 9ft 9s 7s 18 22 mph 997.2mb 41f 40f
9:50pm 9ft 10s 7s 20 25 mph 996.4mb 41f 40f
8:50pm 9ft 8s 7s 13 16 mph 996.3mb 41f 40f
7:50pm 9ft 10s 7s 13 18 mph 995.6mb 41f 40f
6:50pm 10ft 11s 7s 16 20 mph 995mb 41f 40f
5:50pm 10ft 10s 7s 20 27 mph 994.4mb 41f 40f
4:50pm 10.5ft 10s 7s 22 29 mph 994.1mb 41f 41f
3:50pm 11ft 10s 7s 22 29 mph 993.9mb 41f 41f